Aérodrome :
LOGIN :

S'inscrire | Disclaimer

   EN    FR    IT 

 










Légende :    VFR   VFR Marginal   IFR   IFR Intensif   IFR Très Intensif
Visi : 
Plafond : 
>= 8 km
>= 3000ft
5 à 8 km
1000 à 3000 ft
1500m à 5 km
500 à 1000 ft
800 à 1500m
200 à 500 ft
< 800m
< 200 ft
Symboles :   Orages  Brouillard  Fortes neiges  Fortes précipitations  Vent > 20 kt
SIGMETs :   Divers  Orages  Givrage  Turbulence  Onde Orograph.  Cendres Volcan.






- Altitude de l'aérodrome : 39 ft
- Code IATA : ANR


EBAW - Anvers / Antwerpen Deurne

DERNIER METAR :
  • 252120Z 21006KT 9999 BKN028 10/06 Q1018 NOSIG

METARs EXPIRÉS :
  • 252050Z 20004KT 9999 BKN035 10/06 Q1018 NOSIG
  • 252020Z 22004KT 9999 BKN032 10/07 Q1018 NOSIG
  • 251950Z 20005KT 9999 BKN049 10/06 Q1018 NOSIG
  • 251920Z 19005KT 9999 BKN049 10/06 Q1017 NOSIG
  • 251850Z 20005KT 9999 BKN045 10/06 Q1017 NOSIG

TAF TAF EBAW
Valide du 25 à 21h jusqu'au 26 à 06h UTC


252010Z 2521/2606 20006KT 9999 BKN030
PROB40
TEMPO 2602/2606 BKN012



MET'MAP, la Météo Aéronautique d'un coup d'oeil ! - Copyright ORBIFLY Décembre 2007 - Disclaimer

ORBIFLY MET'MAP TEAM :

Programmation & Développement : Alexandra Zaïnal
Sur une idée originale de : Baudouin d'Aumeries
Assistance à la programmation : Marc-Olivier Méhu
Soutien technique & logistique : Manuel Goepfert

Contact : metmap@orbifly.com




SOURCES & CREDITS :

   NOAA